createdAt,value
2022-09-11T00:08:12.367Z,16.18
2022-09-11T00:11:27.692Z,16.15
2022-09-11T00:14:46.365Z,16.15
2022-09-11T00:21:32.815Z,16.12
2022-09-11T00:24:51.495Z,16.09
2022-09-11T00:27:32.111Z,16.07
2022-09-11T00:30:33.141Z,16.06
2022-09-11T00:33:06.102Z,16.01
2022-09-11T00:36:01.256Z,15.97
2022-09-11T00:38:34.797Z,15.99
2022-09-11T00:41:27.140Z,15.94
2022-09-11T00:44:03.992Z,15.97
2022-09-11T00:46:39.417Z,15.96
2022-09-11T00:49:26.586Z,15.96
2022-09-11T00:52:24.533Z,15.90
2022-09-11T00:55:03.037Z,15.98
2022-09-11T00:57:45.934Z,16.03
2022-09-11T01:00:22.848Z,16.06
2022-09-11T01:08:05.937Z,16.08
2022-09-11T01:10:45.903Z,16.12
2022-09-11T01:13:55.988Z,16.09
2022-09-11T01:17:05.076Z,16.10
2022-09-11T01:22:31.076Z,16.10
2022-09-11T01:33:02.214Z,16.25
2022-09-11T01:35:49.418Z,16.25
2022-09-11T01:38:37.118Z,16.26
2022-09-11T01:41:11.707Z,16.27
2022-09-11T01:43:42.637Z,16.23
2022-09-11T01:46:19.556Z,16.26
2022-09-11T01:52:47.538Z,16.35
2022-09-11T01:55:28.331Z,16.28
2022-09-11T01:58:15.402Z,16.31
2022-09-11T02:01:14.289Z,16.26
2022-09-11T02:04:09.526Z,16.26
2022-09-11T02:06:48.970Z,16.26
2022-09-11T02:14:32.942Z,16.18
2022-09-11T02:33:15.271Z,16.09
2022-09-11T03:15:02.877Z,15.77
2022-09-11T03:15:11.236Z,15.80
2022-09-11T03:17:47.448Z,15.75
2022-09-11T03:20:17.877Z,15.79
2022-09-11T03:23:35.438Z,15.77
2022-09-11T03:26:25.523Z,15.76
2022-09-11T03:29:56.326Z,15.77
2022-09-11T03:32:51.395Z,15.82
2022-09-11T03:35:22.399Z,15.87
2022-09-11T03:37:50.564Z,15.91
2022-09-11T03:40:31.282Z,15.88
2022-09-11T03:43:03.481Z,15.90
2022-09-11T03:45:33.472Z,15.95
2022-09-11T03:49:22.294Z,15.96
2022-09-11T04:00:33.231Z,16.02
2022-09-11T04:27:44.796Z,16.07
2022-09-11T04:34:18.896Z,16.09
2022-09-11T04:57:35.246Z,16.14
2022-09-11T05:00:36.324Z,16.08
2022-09-11T05:06:52.745Z,16.08
2022-09-11T05:12:47.224Z,16.03
2022-09-11T05:15:22.029Z,16.01
2022-09-11T05:17:55.843Z,16.05
2022-09-11T05:20:34.317Z,16.02
2022-09-11T05:23:03.700Z,16.00
2022-09-11T05:26:06.535Z,16.08
2022-09-11T05:28:34.835Z,16.07
2022-09-11T05:31:03.471Z,16.09
2022-09-11T05:34:07.363Z,16.11
2022-09-11T05:39:52.171Z,16.17
2022-09-11T05:42:22.364Z,16.18
2022-09-11T05:44:53.153Z,16.24
2022-09-11T05:47:20.980Z,16.40
2022-09-11T05:49:49.569Z,16.44
2022-09-11T05:52:17.505Z,16.47
2022-09-11T05:54:47.268Z,16.57
2022-09-11T05:57:34.199Z,16.58
2022-09-11T06:00:03.435Z,16.76
2022-09-11T06:03:03.340Z,17.10
2022-09-11T06:06:11.638Z,17.27
2022-09-11T06:09:03.521Z,17.39
2022-09-11T06:12:30.053Z,17.68
2022-09-11T06:19:32.259Z,18.08
2022-09-11T06:22:17.729Z,17.97
2022-09-11T06:24:49.122Z,17.99
2022-09-11T06:27:29.167Z,18.06
2022-09-11T06:30:01.103Z,17.64
2022-09-11T06:32:33.136Z,17.57
2022-09-11T06:36:10.746Z,17.49
2022-09-11T06:39:46.341Z,17.37
2022-09-11T06:42:28.216Z,17.40
2022-09-11T06:45:03.727Z,17.47
2022-09-11T06:50:36.909Z,17.65
2022-09-11T06:53:19.205Z,17.91
2022-09-11T06:56:03.952Z,17.95
2022-09-11T07:20:10.774Z,18.60
2022-09-11T07:34:36.987Z,19.15
2022-09-11T07:37:15.508Z,19.45
2022-09-11T07:40:37.357Z,19.37
2022-09-11T07:42:41.282Z,19.07
2022-09-11T07:45:29.452Z,18.93
2022-09-11T07:48:09.127Z,18.81
2022-09-11T07:57:41.471Z,19.34
2022-09-11T08:27:24.961Z,21.77
2022-09-11T08:30:21.672Z,21.38
2022-09-11T08:33:02.433Z,21.99
2022-09-11T08:36:31.320Z,22.61
2022-09-11T08:40:07.678Z,21.81
2022-09-11T08:46:16.983Z,23.15
2022-09-11T08:48:50.687Z,22.72
2022-09-11T08:51:35.325Z,22.64
2022-09-11T08:54:13.244Z,22.10
2022-09-11T08:56:44.289Z,22.20
2022-09-11T08:59:27.055Z,22.14
2022-09-11T09:02:11.409Z,22.66
2022-09-11T09:04:54.772Z,22.43
2022-09-11T09:07:32.130Z,23.11
2022-09-11T09:10:13.437Z,23.87
2022-09-11T09:12:51.094Z,22.83
2022-09-11T09:15:41.203Z,22.83
2022-09-11T09:18:24.492Z,23.56
2022-09-11T09:21:05.637Z,24.09
2022-09-11T09:23:39.754Z,23.42
2022-09-11T09:26:17.799Z,23.69
2022-09-11T09:28:48.456Z,24.44
2022-09-11T09:31:22.154Z,24.80
2022-09-11T09:33:55.435Z,24.11
2022-09-11T09:36:33.897Z,23.62
2022-09-11T09:39:03.913Z,24.65
2022-09-11T09:41:52.120Z,25.12
2022-09-11T09:44:36.723Z,25.09
2022-09-11T09:47:18.146Z,25.10
2022-09-11T09:49:50.360Z,26.25
2022-09-11T09:52:22.368Z,26.39
2022-09-11T09:55:07.621Z,26.41
2022-09-11T09:57:39.656Z,27.83
2022-09-11T10:00:20.532Z,27.51
2022-09-11T10:02:58.490Z,26.88
2022-09-11T10:05:31.293Z,26.06
2022-09-11T10:08:03.909Z,26.03
2022-09-11T10:10:57.645Z,25.41
2022-09-11T10:13:40.377Z,24.99
2022-09-11T10:16:44.307Z,24.05
2022-09-11T10:19:41.034Z,23.99
2022-09-11T10:22:26.149Z,23.87
2022-09-11T10:25:08.680Z,23.55
2022-09-11T10:27:44.564Z,22.95
2022-09-11T10:30:31.447Z,23.30
2022-09-11T10:33:03.739Z,23.23
2022-09-11T10:35:36.346Z,23.89
2022-09-11T10:38:18.250Z,24.85
2022-09-11T10:41:01.776Z,26.50
2022-09-11T10:43:36.520Z,26.46
2022-09-11T10:46:14.736Z,25.95
2022-09-11T10:48:45.905Z,24.89
2022-09-11T10:51:15.148Z,24.01
2022-09-11T10:53:59.252Z,23.59
2022-09-11T10:56:27.880Z,23.20
2022-09-11T10:59:01.414Z,22.97
2022-09-11T11:01:29.313Z,23.01
2022-09-11T11:03:57.207Z,22.92
2022-09-11T11:06:44.315Z,23.31
2022-09-11T11:09:31.232Z,23.85
2022-09-11T11:12:13.977Z,22.86
2022-09-11T11:15:02.707Z,22.26
2022-09-11T11:17:41.503Z,22.11
2022-09-11T11:20:32.301Z,22.17
2022-09-11T11:23:18.875Z,22.16
2022-09-11T11:25:54.295Z,22.13
2022-09-11T11:28:44.079Z,23.72
2022-09-11T11:31:29.045Z,24.47
2022-09-11T11:34:16.846Z,25.36
2022-09-11T11:36:51.064Z,25.55
2022-09-11T11:39:25.057Z,26.32
2022-09-11T11:42:04.263Z,27.58
2022-09-11T11:44:38.001Z,28.53
2022-09-11T11:47:09.869Z,28.00
2022-09-11T11:49:50.287Z,27.03
2022-09-11T11:52:31.289Z,27.45
2022-09-11T11:55:06.125Z,28.15
2022-09-11T11:57:41.591Z,27.80
2022-09-11T12:00:13.229Z,27.72
2022-09-11T12:02:49.523Z,27.82
2022-09-11T12:05:20.635Z,27.94
2022-09-11T12:07:48.639Z,26.81
2022-09-11T12:10:32.052Z,27.00
2022-09-11T12:13:02.334Z,26.31
2022-09-11T12:15:36.670Z,24.49
2022-09-11T12:18:07.987Z,24.52
2022-09-11T12:20:43.664Z,25.04
2022-09-11T12:23:35.944Z,25.10
2022-09-11T12:26:22.143Z,25.43
2022-09-11T12:28:50.691Z,25.88
2022-09-11T12:31:19.008Z,26.32
2022-09-11T12:33:57.212Z,25.64
2022-09-11T12:36:37.093Z,25.41
2022-09-11T12:39:17.074Z,25.47
2022-09-11T12:41:46.265Z,25.72
2022-09-11T12:44:54.038Z,25.75
2022-09-11T12:47:24.560Z,25.72
2022-09-11T12:49:59.053Z,26.02
2022-09-11T12:52:33.898Z,26.16
2022-09-11T12:55:07.757Z,25.95
2022-09-11T12:57:40.794Z,25.69
2022-09-11T13:00:22.536Z,25.30
2022-09-11T13:02:56.840Z,24.90
2022-09-11T13:05:28.349Z,24.78
2022-09-11T13:07:59.630Z,24.72
2022-09-11T13:10:35.249Z,25.14
2022-09-11T13:13:07.265Z,24.79
2022-09-11T13:15:44.623Z,25.01
2022-09-11T13:18:32.193Z,25.76
2022-09-11T13:21:04.622Z,26.85
2022-09-11T13:23:32.822Z,26.99
2022-09-11T13:26:02.759Z,26.93
2022-09-11T13:28:32.873Z,26.49
2022-09-11T13:31:04.797Z,27.17
2022-09-11T13:33:33.694Z,27.65
2022-09-11T13:36:06.893Z,27.76
2022-09-11T13:38:37.095Z,27.83
2022-09-11T13:41:07.563Z,26.99
2022-09-11T13:43:45.252Z,25.94
2022-09-11T13:46:22.131Z,25.92
2022-09-11T13:48:53.132Z,24.54
2022-09-11T13:51:25.569Z,24.62
2022-09-11T13:53:59.460Z,24.87
2022-09-11T13:56:46.951Z,25.06
2022-09-11T13:59:46.217Z,25.96
2022-09-11T14:02:26.613Z,26.02
2022-09-11T14:05:03.446Z,26.27
2022-09-11T14:07:33.244Z,26.84
2022-09-11T14:10:05.916Z,26.61
2022-09-11T14:12:35.380Z,26.39
2022-09-11T14:15:11.494Z,25.90
2022-09-11T14:17:42.231Z,26.18
2022-09-11T14:20:17.165Z,25.80
2022-09-11T14:22:45.218Z,25.36
2022-09-11T14:25:24.152Z,25.20
2022-09-11T14:27:52.544Z,25.67
2022-09-11T14:30:45.490Z,25.69
2022-09-11T14:33:24.943Z,25.19
2022-09-11T14:35:55.338Z,25.35
2022-09-11T14:38:26.810Z,25.23
2022-09-11T14:40:58.593Z,25.10
2022-09-11T14:43:30.943Z,24.66
2022-09-11T14:46:00.571Z,24.49
2022-09-11T14:48:29.019Z,24.18
2022-09-11T14:50:57.009Z,24.62
2022-09-11T14:53:29.932Z,24.57
2022-09-11T14:55:59.980Z,24.35
2022-09-11T14:58:29.617Z,24.44
2022-09-11T15:00:58.379Z,24.36
2022-09-11T15:03:28.809Z,24.37
2022-09-11T15:05:58.909Z,24.42
2022-09-11T15:08:27.038Z,24.67
2022-09-11T15:10:55.123Z,24.68
2022-09-11T15:13:23.167Z,24.73
2022-09-11T15:15:53.320Z,24.77
2022-09-11T15:18:21.206Z,24.65
2022-09-11T15:20:50.328Z,24.46
2022-09-11T15:23:18.401Z,24.42
2022-09-11T15:25:46.315Z,24.55
2022-09-11T15:28:14.273Z,24.63
2022-09-11T15:30:42.921Z,24.65
2022-09-11T15:33:11.514Z,24.06
2022-09-11T15:35:39.266Z,24.35
2022-09-11T15:38:11.145Z,24.42
2022-09-11T15:40:39.169Z,24.53
2022-09-11T15:43:07.521Z,24.15
2022-09-11T15:45:35.374Z,24.00
2022-09-11T15:48:03.560Z,24.45
2022-09-11T15:50:31.238Z,24.43
2022-09-11T15:52:58.965Z,24.21
2022-09-11T15:55:30.169Z,24.35
2022-09-11T15:58:00.373Z,24.34
2022-09-11T16:00:29.554Z,24.06
2022-09-11T16:02:57.516Z,24.18
2022-09-11T16:05:25.624Z,24.37
2022-09-11T16:07:53.376Z,24.47
2022-09-11T16:10:21.181Z,24.44
2022-09-11T16:12:50.314Z,24.35
2022-09-11T16:15:18.699Z,24.28
2022-09-11T16:17:46.884Z,24.32
2022-09-11T16:20:15.350Z,24.44
2022-09-11T16:22:44.118Z,24.37
2022-09-11T16:25:12.079Z,24.07
2022-09-11T16:27:39.851Z,23.96
2022-09-11T16:30:42.572Z,23.85
2022-09-11T16:32:59.320Z,23.83
2022-09-11T16:35:27.292Z,23.91
2022-09-11T16:37:54.972Z,23.78
2022-09-11T16:40:22.740Z,23.55
2022-09-11T16:42:50.705Z,23.66
2022-09-11T16:45:20.009Z,23.47
2022-09-11T16:47:47.883Z,23.47
2022-09-11T16:50:15.744Z,23.55
2022-09-11T16:52:43.585Z,23.52
2022-09-11T16:55:11.505Z,23.16
2022-09-11T16:57:39.672Z,23.09
2022-09-11T17:00:09.667Z,22.97
2022-09-11T17:02:38.814Z,23.08
2022-09-11T17:05:07.141Z,23.11
2022-09-11T17:07:37.134Z,22.89
2022-09-11T17:10:05.721Z,23.04
2022-09-11T17:12:33.375Z,22.98
2022-09-11T17:15:01.901Z,22.67
2022-09-11T17:17:31.074Z,22.79
2022-09-11T17:20:00.267Z,22.51
2022-09-11T17:22:29.625Z,22.55
2022-09-11T17:24:57.444Z,22.55
2022-09-11T17:27:25.108Z,22.57
2022-09-11T17:29:52.752Z,22.32
2022-09-11T17:32:28.204Z,22.32
2022-09-11T17:35:04.317Z,21.96
2022-09-11T17:37:36.333Z,21.89
2022-09-11T17:40:13.739Z,21.72
2022-09-11T17:43:09.469Z,21.33
2022-09-11T17:45:46.122Z,20.91
2022-09-11T17:48:14.500Z,20.50
2022-09-11T17:50:42.471Z,20.26
2022-09-11T17:53:14.337Z,19.89
2022-09-11T17:55:42.354Z,19.60
2022-09-11T17:58:40.541Z,19.60
2022-09-11T18:02:13.408Z,19.30
2022-09-11T19:41:35.185Z,16.23
2022-09-11T19:44:24.638Z,16.24
2022-09-11T19:47:25.065Z,16.19
2022-09-11T19:49:55.405Z,16.19
2022-09-11T19:52:33.271Z,16.11
2022-09-11T19:55:03.997Z,16.06
2022-09-11T19:57:39.376Z,15.99
2022-09-11T20:00:18.319Z,15.88
2022-09-11T20:02:46.447Z,15.88
2022-09-11T20:05:25.824Z,15.89
2022-09-11T20:07:54.299Z,15.77
2022-09-11T20:10:26.130Z,15.76
2022-09-11T20:12:57.601Z,15.70
2022-09-11T20:15:45.639Z,15.71
2022-09-11T20:18:28.845Z,15.66
2022-09-11T20:21:02.191Z,15.71
2022-09-11T20:23:30.461Z,15.62
2022-09-11T20:26:21.255Z,15.61
2022-09-11T20:29:06.451Z,15.55
2022-09-11T20:31:49.240Z,15.51
2022-09-11T20:34:36.766Z,15.53
2022-09-11T20:37:09.899Z,15.48
2022-09-11T20:39:38.689Z,15.38
2022-09-11T20:45:07.850Z,15.36
2022-09-11T20:47:44.338Z,15.23
2022-09-11T20:50:15.016Z,15.23
2022-09-11T20:52:46.546Z,15.10
2022-09-11T20:55:14.958Z,15.12
2022-09-11T20:57:43.003Z,15.08
2022-09-11T21:00:13.896Z,14.96
2022-09-11T21:02:41.754Z,14.87
2022-09-11T21:05:10.171Z,14.81
2022-09-11T21:07:37.964Z,14.78
2022-09-11T21:10:06.682Z,14.85
2022-09-11T21:12:34.466Z,14.85
2022-09-11T21:15:12.258Z,14.81
2022-09-11T21:17:44.081Z,14.75
2022-09-11T21:20:11.938Z,14.82
2022-09-11T21:22:40.775Z,14.74
2022-09-11T21:25:09.984Z,14.72
2022-09-11T21:27:37.770Z,14.69
2022-09-11T21:30:06.166Z,14.67
2022-09-11T21:32:33.816Z,14.65
2022-09-11T21:35:02.897Z,14.60
2022-09-11T21:37:30.584Z,14.47
2022-09-11T21:39:58.338Z,14.41
2022-09-11T21:42:26.736Z,14.37
2022-09-11T21:44:57.284Z,14.36
2022-09-11T21:47:26.460Z,14.35
2022-09-11T21:49:54.231Z,14.26
2022-09-11T21:52:23.341Z,14.23
2022-09-11T21:54:54.651Z,14.23
2022-09-11T21:57:22.759Z,14.20
2022-09-11T21:59:50.533Z,14.17
2022-09-11T22:02:18.510Z,14.21
2022-09-11T22:04:46.174Z,14.17
2022-09-11T22:07:17.956Z,14.12
2022-09-11T22:09:48.468Z,14.07
2022-09-11T22:12:17.463Z,14.05
2022-09-11T22:14:48.721Z,14.08
2022-09-11T22:17:25.302Z,14.10
2022-09-11T22:19:53.181Z,14.06
2022-09-11T22:22:21.337Z,13.99
2022-09-11T22:24:53.608Z,13.91
2022-09-11T22:27:22.060Z,13.91
2022-09-11T22:29:49.837Z,13.90
2022-09-11T22:32:17.636Z,13.91
2022-09-11T22:34:45.527Z,13.90
2022-09-11T22:37:13.482Z,13.88
2022-09-11T22:39:41.714Z,13.84
2022-09-11T22:42:15.738Z,13.82
2022-09-11T22:44:43.575Z,13.77
2022-09-11T22:47:11.532Z,13.75
2022-09-11T22:49:39.963Z,13.72
2022-09-11T22:52:10.716Z,13.73
2022-09-11T22:54:38.496Z,13.70
2022-09-11T22:57:06.581Z,13.62
2022-09-11T22:59:35.575Z,13.68
2022-09-11T23:02:03.525Z,13.58
2022-09-11T23:04:31.224Z,13.59
2022-09-11T23:07:16.845Z,13.50
2022-09-11T23:09:46.098Z,13.50
2022-09-11T23:12:13.772Z,13.47
2022-09-11T23:14:47.499Z,13.46
2022-09-11T23:17:15.484Z,13.38
2022-09-11T23:19:43.252Z,13.39
2022-09-11T23:22:14.709Z,13.34
2022-09-11T23:24:44.265Z,13.33
2022-09-11T23:27:11.996Z,13.38
2022-09-11T23:30:37.784Z,13.35
2022-09-11T23:33:46.378Z,13.30
2022-09-11T23:36:16.327Z,13.26
2022-09-11T23:38:52.325Z,13.24
2022-09-11T23:41:29.379Z,13.24
2022-09-11T23:43:58.515Z,13.15
2022-09-11T23:46:27.027Z,13.15
2022-09-11T23:48:56.180Z,13.13
2022-09-11T23:51:33.036Z,13.16
2022-09-11T23:54:01.293Z,13.11
2022-09-11T23:56:29.224Z,13.07
2022-09-11T23:58:57.112Z,13.05
